Osnaburg, Ohio
Current Conditions -  °F | °C
As of 1:51 AM on Sunday 23 Nov 2014 (Local Time) from KCAK Reporting Station
Overcast Overcast  
Wind Chill: 42°   Ceiling: 4100
Heat Index: 46°   Visibility: 10mi
Dew Point: 33°   Wind: 8mph
Humidity: 61%   Direction: 210°SSW
Pressure: 30.05"   Gusts: NA
Location:  40.7679°N, 81.2601°W
Report Text: KCAK 230651Z 21007KT 10SM OVC041 08/01 A3005 RMK AO2 SLP184 T00780006 $
Loading
Personal Weather Stations






























Interactive Weather Map New forecast layout! Learn more

10-Day Weather Forecast

Advertisements
Track Severe Weather on mobile